sensor_id;sensor_type;location;lat;lon;timestamp;temperature;humidity
66568;DHT22;53422;49.296;6.900;2023-11-19T00:00:06;8.20;99.90
66568;DHT22;53422;49.296;6.900;2023-11-19T00:02:37;8.30;99.90
66568;DHT22;53422;49.296;6.900;2023-11-19T00:05:03;8.30;99.90
66568;DHT22;53422;49.296;6.900;2023-11-19T00:07:29;8.20;99.90
66568;DHT22;53422;49.296;6.900;2023-11-19T00:09:54;8.20;99.90
66568;DHT22;53422;49.296;6.900;2023-11-19T00:12:20;8.30;99.90
66568;DHT22;53422;49.296;6.900;2023-11-19T00:14:46;8.30;99.90
66568;DHT22;53422;49.296;6.900;2023-11-19T00:17:12;8.30;99.90
66568;DHT22;53422;49.296;6.900;2023-11-19T00:19:37;8.40;99.90
66568;DHT22;53422;49.296;6.900;2023-11-19T00:22:03;8.30;99.90
66568;DHT22;53422;49.296;6.900;2023-11-19T00:24:29;8.30;99.90
66568;DHT22;53422;49.296;6.900;2023-11-19T00:26:56;8.30;99.90
66568;DHT22;53422;49.296;6.900;2023-11-19T00:29:22;8.40;99.90
66568;DHT22;53422;49.296;6.900;2023-11-19T00:31:47;8.40;99.90
66568;DHT22;53422;49.296;6.900;2023-11-19T00:34:13;8.30;99.90
66568;DHT22;53422;49.296;6.900;2023-11-19T00:36:39;8.30;99.90
66568;DHT22;53422;49.296;6.900;2023-11-19T00:39:04;8.30;99.90
66568;DHT22;53422;49.296;6.900;2023-11-19T00:41:31;8.30;99.90
66568;DHT22;53422;49.296;6.900;2023-11-19T00:43:57;8.40;99.90
66568;DHT22;53422;49.296;6.900;2023-11-19T00:46:22;8.40;99.90
66568;DHT22;53422;49.296;6.900;2023-11-19T00:48:48;8.50;99.90
66568;DHT22;53422;49.296;6.900;2023-11-19T00:51:14;8.40;99.90
66568;DHT22;53422;49.296;6.900;2023-11-19T00:53:40;8.40;99.90
66568;DHT22;53422;49.296;6.900;2023-11-19T00:56:06;8.40;99.90
66568;DHT22;53422;49.296;6.900;2023-11-19T00:58:31;8.40;99.90
66568;DHT22;53422;49.296;6.900;2023-11-19T01:00:57;8.40;99.90
66568;DHT22;53422;49.296;6.900;2023-11-19T01:03:23;8.40;99.90
66568;DHT22;53422;49.296;6.900;2023-11-19T01:05:49;8.40;99.90
66568;DHT22;53422;49.296;6.900;2023-11-19T01:08:16;8.40;99.90
66568;DHT22;53422;49.296;6.900;2023-11-19T01:10:41;8.40;99.90
66568;DHT22;53422;49.296;6.900;2023-11-19T01:13:07;8.40;99.90
66568;DHT22;53422;49.296;6.900;2023-11-19T01:15:32;8.50;99.90
66568;DHT22;53422;49.296;6.900;2023-11-19T01:17:58;8.40;99.90
66568;DHT22;53422;49.296;6.900;2023-11-19T01:20:24;8.50;99.90
66568;DHT22;53422;49.296;6.900;2023-11-19T01:22:50;8.50;99.90
66568;DHT22;53422;49.296;6.900;2023-11-19T01:25:16;8.50;99.90
66568;DHT22;53422;49.296;6.900;2023-11-19T01:27:42;8.50;99.90
66568;DHT22;53422;49.296;6.900;2023-11-19T01:30:08;8.50;99.90
66568;DHT22;53422;49.296;6.900;2023-11-19T01:32:41;8.60;99.90
66568;DHT22;53422;49.296;6.900;2023-11-19T01:35:07;8.60;99.90
66568;DHT22;53422;49.296;6.900;2023-11-19T01:37:33;8.60;99.90
66568;DHT22;53422;49.296;6.900;2023-11-19T01:40:03;8.60;99.90
66568;DHT22;53422;49.296;6.900;2023-11-19T01:42:30;8.60;99.90
66568;DHT22;53422;49.296;6.900;2023-11-19T01:45:01;8.60;99.90
66568;DHT22;53422;49.296;6.900;2023-11-19T01:47:28;8.70;99.90
66568;DHT22;53422;49.296;6.900;2023-11-19T01:49:56;8.70;99.90
66568;DHT22;53422;49.296;6.900;2023-11-19T01:52:22;8.60;99.90
66568;DHT22;53422;49.296;6.900;2023-11-19T01:54:49;8.60;99.90
66568;DHT22;53422;49.296;6.900;2023-11-19T01:57:15;8.60;99.90
66568;DHT22;53422;49.296;6.900;2023-11-19T01:59:41;8.70;99.90
66568;DHT22;53422;49.296;6.900;2023-11-19T02:02:08;8.70;99.90
66568;DHT22;53422;49.296;6.900;2023-11-19T02:04:33;8.70;99.90
66568;DHT22;53422;49.296;6.900;2023-11-19T02:07:00;8.70;99.90
66568;DHT22;53422;49.296;6.900;2023-11-19T02:09:26;8.70;99.90
66568;DHT22;53422;49.296;6.900;2023-11-19T02:11:53;8.80;99.90
66568;DHT22;53422;49.296;6.900;2023-11-19T02:14:23;8.80;99.90
66568;DHT22;53422;49.296;6.900;2023-11-19T02:16:49;8.80;99.90
66568;DHT22;53422;49.296;6.900;2023-11-19T02:19:15;8.80;99.90
66568;DHT22;53422;49.296;6.900;2023-11-19T02:21:40;8.80;99.90
66568;DHT22;53422;49.296;6.900;2023-11-19T02:24:08;8.80;99.90
66568;DHT22;53422;49.296;6.900;2023-11-19T02:29:21;8.80;99.90
66568;DHT22;53422;49.296;6.900;2023-11-19T02:31:47;8.90;99.90
66568;DHT22;53422;49.296;6.900;2023-11-19T02:34:13;8.80;99.90
66568;DHT22;53422;49.296;6.900;2023-11-19T02:36:39;8.90;99.90
66568;DHT22;53422;49.296;6.900;2023-11-19T02:39:07;8.80;99.90
66568;DHT22;53422;49.296;6.900;2023-11-19T02:41:35;8.80;99.90
66568;DHT22;53422;49.296;6.900;2023-11-19T02:44:01;8.80;99.90
66568;DHT22;53422;49.296;6.900;2023-11-19T02:46:27;8.80;99.90
66568;DHT22;53422;49.296;6.900;2023-11-19T02:48:52;8.90;99.90
66568;DHT22;53422;49.296;6.900;2023-11-19T02:51:18;8.90;99.90
66568;DHT22;53422;49.296;6.900;2023-11-19T02:53:44;9.00;99.90
66568;DHT22;53422;49.296;6.900;2023-11-19T02:56:13;9.00;99.90
66568;DHT22;53422;49.296;6.900;2023-11-19T02:58:50;9.10;99.90
66568;DHT22;53422;49.296;6.900;2023-11-19T03:01:25;9.00;99.90
66568;DHT22;53422;49.296;6.900;2023-11-19T03:04:00;9.00;99.90
66568;DHT22;53422;49.296;6.900;2023-11-19T03:06:27;9.10;99.90
66568;DHT22;53422;49.296;6.900;2023-11-19T03:08:54;9.10;99.90
66568;DHT22;53422;49.296;6.900;2023-11-19T03:11:20;9.10;99.90
66568;DHT22;53422;49.296;6.900;2023-11-19T03:13:46;9.10;99.90
66568;DHT22;53422;49.296;6.900;2023-11-19T03:16:12;9.10;99.90
66568;DHT22;53422;49.296;6.900;2023-11-19T03:18:38;9.20;99.90
66568;DHT22;53422;49.296;6.900;2023-11-19T03:21:06;9.20;99.90
66568;DHT22;53422;49.296;6.900;2023-11-19T03:23:33;9.30;99.90
66568;DHT22;53422;49.296;6.900;2023-11-19T03:25:58;9.20;99.90
66568;DHT22;53422;49.296;6.900;2023-11-19T03:28:24;9.20;99.90
66568;DHT22;53422;49.296;6.900;2023-11-19T03:30:50;9.20;99.90
66568;DHT22;53422;49.296;6.900;2023-11-19T03:33:15;9.30;99.90
66568;DHT22;53422;49.296;6.900;2023-11-19T03:35:41;9.30;99.90
66568;DHT22;53422;49.296;6.900;2023-11-19T03:38:07;9.50;99.90
66568;DHT22;53422;49.296;6.900;2023-11-19T03:40:32;9.50;99.90
66568;DHT22;53422;49.296;6.900;2023-11-19T03:42:58;9.40;99.90
66568;DHT22;53422;49.296;6.900;2023-11-19T03:45:24;9.40;99.90
66568;DHT22;53422;49.296;6.900;2023-11-19T03:47:51;9.40;99.90
66568;DHT22;53422;49.296;6.900;2023-11-19T03:50:17;9.40;99.90
66568;DHT22;53422;49.296;6.900;2023-11-19T03:52:45;9.40;99.90
66568;DHT22;53422;49.296;6.900;2023-11-19T03:55:11;9.50;99.90
66568;DHT22;53422;49.296;6.900;2023-11-19T03:57:39;9.60;99.90
66568;DHT22;53422;49.296;6.900;2023-11-19T04:00:05;9.60;99.90
66568;DHT22;53422;49.296;6.900;2023-11-19T04:02:40;9.60;99.90
66568;DHT22;53422;49.296;6.900;2023-11-19T04:05:06;9.60;99.90
66568;DHT22;53422;49.296;6.900;2023-11-19T04:07:32;9.50;99.90
66568;DHT22;53422;49.296;6.900;2023-11-19T04:09:58;9.60;99.90
66568;DHT22;53422;49.296;6.900;2023-11-19T04:12:24;9.70;99.90
66568;DHT22;53422;49.296;6.900;2023-11-19T04:14:50;9.60;99.90
66568;DHT22;53422;49.296;6.900;2023-11-19T04:17:15;9.60;99.90
66568;DHT22;53422;49.296;6.900;2023-11-19T04:19:41;9.60;99.90
66568;DHT22;53422;49.296;6.900;2023-11-19T04:22:10;9.50;99.90
66568;DHT22;53422;49.296;6.900;2023-11-19T04:24:36;9.80;99.90
66568;DHT22;53422;49.296;6.900;2023-11-19T04:27:02;9.70;99.90
66568;DHT22;53422;49.296;6.900;2023-11-19T04:29:30;9.80;99.90
66568;DHT22;53422;49.296;6.900;2023-11-19T04:31:56;9.70;99.90
66568;DHT22;53422;49.296;6.900;2023-11-19T04:34:21;9.60;99.90
66568;DHT22;53422;49.296;6.900;2023-11-19T04:36:47;9.70;99.90
66568;DHT22;53422;49.296;6.900;2023-11-19T04:39:13;9.70;99.90
66568;DHT22;53422;49.296;6.900;2023-11-19T04:44:14;9.90;99.90
66568;DHT22;53422;49.296;6.900;2023-11-19T04:46:41;9.80;99.90
66568;DHT22;53422;49.296;6.900;2023-11-19T04:49:09;9.70;99.90
66568;DHT22;53422;49.296;6.900;2023-11-19T04:51:43;9.80;99.90
66568;DHT22;53422;49.296;6.900;2023-11-19T04:54:10;9.90;99.90
66568;DHT22;53422;49.296;6.900;2023-11-19T04:56:36;10.00;99.90
66568;DHT22;53422;49.296;6.900;2023-11-19T04:59:03;9.90;99.90
66568;DHT22;53422;49.296;6.900;2023-11-19T05:01:28;10.00;99.90
66568;DHT22;53422;49.296;6.900;2023-11-19T05:03:55;10.10;99.90
66568;DHT22;53422;49.296;6.900;2023-11-19T05:06:22;10.00;99.90
66568;DHT22;53422;49.296;6.900;2023-11-19T05:08:48;9.90;99.90
66568;DHT22;53422;49.296;6.900;2023-11-19T05:11:13;9.90;99.90
66568;DHT22;53422;49.296;6.900;2023-11-19T05:13:43;9.80;99.90
66568;DHT22;53422;49.296;6.900;2023-11-19T05:16:11;9.90;99.90
66568;DHT22;53422;49.296;6.900;2023-11-19T05:18:39;9.90;99.90
66568;DHT22;53422;49.296;6.900;2023-11-19T05:21:05;10.10;99.90
66568;DHT22;53422;49.296;6.900;2023-11-19T05:23:32;10.00;99.90
66568;DHT22;53422;49.296;6.900;2023-11-19T05:26:00;9.90;99.90
66568;DHT22;53422;49.296;6.900;2023-11-19T05:28:26;10.00;99.90
66568;DHT22;53422;49.296;6.900;2023-11-19T05:30:51;9.90;99.90
66568;DHT22;53422;49.296;6.900;2023-11-19T05:33:17;10.00;99.90
66568;DHT22;53422;49.296;6.900;2023-11-19T05:35:43;9.90;99.90
66568;DHT22;53422;49.296;6.900;2023-11-19T05:38:08;10.00;99.90
66568;DHT22;53422;49.296;6.900;2023-11-19T05:40:35;10.10;99.90
66568;DHT22;53422;49.296;6.900;2023-11-19T05:43:01;10.10;99.90
66568;DHT22;53422;49.296;6.900;2023-11-19T05:45:27;10.20;99.90
66568;DHT22;53422;49.296;6.900;2023-11-19T05:47:52;10.10;99.90
66568;DHT22;53422;49.296;6.900;2023-11-19T05:50:18;10.00;99.90
66568;DHT22;53422;49.296;6.900;2023-11-19T05:52:44;10.20;99.90
66568;DHT22;53422;49.296;6.900;2023-11-19T05:55:10;10.20;99.90
66568;DHT22;53422;49.296;6.900;2023-11-19T05:57:39;10.20;99.90
66568;DHT22;53422;49.296;6.900;2023-11-19T06:00:08;10.10;99.90
66568;DHT22;53422;49.296;6.900;2023-11-19T06:02:35;10.10;99.90
66568;DHT22;53422;49.296;6.900;2023-11-19T06:05:03;10.10;99.90
66568;DHT22;53422;49.296;6.900;2023-11-19T06:07:31;10.10;99.90
66568;DHT22;53422;49.296;6.900;2023-11-19T06:09:56;10.10;99.90
66568;DHT22;53422;49.296;6.900;2023-11-19T06:12:22;10.30;99.90
66568;DHT22;53422;49.296;6.900;2023-11-19T06:14:48;10.30;99.90
66568;DHT22;53422;49.296;6.900;2023-11-19T06:17:13;10.30;99.90
66568;DHT22;53422;49.296;6.900;2023-11-19T06:19:39;10.10;99.90
66568;DHT22;53422;49.296;6.900;2023-11-19T06:22:04;10.10;99.90
66568;DHT22;53422;49.296;6.900;2023-11-19T06:24:30;10.20;99.90
66568;DHT22;53422;49.296;6.900;2023-11-19T06:26:56;10.30;99.90
66568;DHT22;53422;49.296;6.900;2023-11-19T06:29:24;10.30;99.90
66568;DHT22;53422;49.296;6.900;2023-11-19T06:31:50;10.40;99.90
66568;DHT22;53422;49.296;6.900;2023-11-19T06:34:16;10.30;99.90
66568;DHT22;53422;49.296;6.900;2023-11-19T06:36:42;10.30;99.90
66568;DHT22;53422;49.296;6.900;2023-11-19T06:39:10;10.30;99.90
66568;DHT22;53422;49.296;6.900;2023-11-19T06:41:36;10.40;99.90
66568;DHT22;53422;49.296;6.900;2023-11-19T06:44:05;10.50;99.90
66568;DHT22;53422;49.296;6.900;2023-11-19T06:46:31;10.50;99.90
66568;DHT22;53422;49.296;6.900;2023-11-19T06:48:57;10.50;99.90
66568;DHT22;53422;49.296;6.900;2023-11-19T06:51:22;10.40;99.90
66568;DHT22;53422;49.296;6.900;2023-11-19T06:53:49;10.30;99.90
66568;DHT22;53422;49.296;6.900;2023-11-19T06:56:22;10.40;99.90
66568;DHT22;53422;49.296;6.900;2023-11-19T06:58:49;10.50;99.90
66568;DHT22;53422;49.296;6.900;2023-11-19T07:01:16;10.50;99.90
66568;DHT22;53422;49.296;6.900;2023-11-19T07:03:42;10.40;99.90
66568;DHT22;53422;49.296;6.900;2023-11-19T07:06:07;10.40;99.90
66568;DHT22;53422;49.296;6.900;2023-11-19T07:08:34;10.50;99.90
66568;DHT22;53422;49.296;6.900;2023-11-19T07:11:00;10.40;99.90
66568;DHT22;53422;49.296;6.900;2023-11-19T07:13:26;10.50;99.90
66568;DHT22;53422;49.296;6.900;2023-11-19T07:15:53;10.50;99.90
66568;DHT22;53422;49.296;6.900;2023-11-19T07:18:20;10.50;99.90
66568;DHT22;53422;49.296;6.900;2023-11-19T07:20:47;10.50;99.90
66568;DHT22;53422;49.296;6.900;2023-11-19T07:23:13;10.40;99.90
66568;DHT22;53422;49.296;6.900;2023-11-19T07:25:42;10.40;99.90
66568;DHT22;53422;49.296;6.900;2023-11-19T07:28:08;10.50;99.90
66568;DHT22;53422;49.296;6.900;2023-11-19T07:30:35;10.40;99.90
66568;DHT22;53422;49.296;6.900;2023-11-19T07:33:01;10.40;99.90
66568;DHT22;53422;49.296;6.900;2023-11-19T07:35:29;10.30;99.90
66568;DHT22;53422;49.296;6.900;2023-11-19T07:37:56;10.40;99.90
66568;DHT22;53422;49.296;6.900;2023-11-19T07:40:23;10.30;99.90
66568;DHT22;53422;49.296;6.900;2023-11-19T07:42:49;10.30;99.90
66568;DHT22;53422;49.296;6.900;2023-11-19T07:45:15;10.40;99.90
66568;DHT22;53422;49.296;6.900;2023-11-19T07:47:41;10.40;99.90
66568;DHT22;53422;49.296;6.900;2023-11-19T07:50:06;10.30;99.90
66568;DHT22;53422;49.296;6.900;2023-11-19T07:52:32;10.50;99.90
66568;DHT22;53422;49.296;6.900;2023-11-19T07:54:58;10.50;99.90
66568;DHT22;53422;49.296;6.900;2023-11-19T07:57:24;10.50;99.90
66568;DHT22;53422;49.296;6.900;2023-11-19T07:59:50;10.60;99.90
66568;DHT22;53422;49.296;6.900;2023-11-19T08:02:15;10.50;99.90
66568;DHT22;53422;49.296;6.900;2023-11-19T08:04:41;10.60;99.90
66568;DHT22;53422;49.296;6.900;2023-11-19T08:07:10;10.50;99.90
66568;DHT22;53422;49.296;6.900;2023-11-19T08:09:36;10.60;99.90
66568;DHT22;53422;49.296;6.900;2023-11-19T08:12:03;10.40;99.90
66568;DHT22;53422;49.296;6.900;2023-11-19T08:14:29;10.40;99.90
66568;DHT22;53422;49.296;6.900;2023-11-19T08:16:55;10.40;99.90
66568;DHT22;53422;49.296;6.900;2023-11-19T08:19:20;10.50;99.90
66568;DHT22;53422;49.296;6.900;2023-11-19T08:21:46;10.50;99.90
66568;DHT22;53422;49.296;6.900;2023-11-19T08:24:11;10.60;99.90
66568;DHT22;53422;49.296;6.900;2023-11-19T08:26:37;10.50;99.90
66568;DHT22;53422;49.296;6.900;2023-11-19T08:29:03;10.50;99.90
66568;DHT22;53422;49.296;6.900;2023-11-19T08:31:28;10.60;99.90
66568;DHT22;53422;49.296;6.900;2023-11-19T08:33:54;10.60;99.90
66568;DHT22;53422;49.296;6.900;2023-11-19T08:36:20;10.70;99.90
66568;DHT22;53422;49.296;6.900;2023-11-19T08:38:46;10.80;99.90
66568;DHT22;53422;49.296;6.900;2023-11-19T08:41:13;11.00;99.90
66568;DHT22;53422;49.296;6.900;2023-11-19T08:43:39;10.80;99.90
66568;DHT22;53422;49.296;6.900;2023-11-19T08:46:10;10.80;99.90
66568;DHT22;53422;49.296;6.900;2023-11-19T08:48:36;10.90;99.90
66568;DHT22;53422;49.296;6.900;2023-11-19T08:51:02;10.80;99.90
66568;DHT22;53422;49.296;6.900;2023-11-19T08:53:28;10.90;99.90
66568;DHT22;53422;49.296;6.900;2023-11-19T08:55:53;10.90;99.90
66568;DHT22;53422;49.296;6.900;2023-11-19T08:58:19;10.90;99.90
66568;DHT22;53422;49.296;6.900;2023-11-19T09:00:45;10.90;99.90
66568;DHT22;53422;49.296;6.900;2023-11-19T09:03:10;10.90;99.90
66568;DHT22;53422;49.296;6.900;2023-11-19T09:05:36;10.90;99.90
66568;DHT22;53422;49.296;6.900;2023-11-19T09:08:06;10.80;99.90
66568;DHT22;53422;49.296;6.900;2023-11-19T09:10:31;10.90;99.90
66568;DHT22;53422;49.296;6.900;2023-11-19T09:12:57;10.90;99.90
66568;DHT22;53422;49.296;6.900;2023-11-19T09:15:23;11.10;99.90
66568;DHT22;53422;49.296;6.900;2023-11-19T09:17:48;11.10;99.90
66568;DHT22;53422;49.296;6.900;2023-11-19T09:20:14;11.00;99.90
66568;DHT22;53422;49.296;6.900;2023-11-19T09:22:41;10.90;99.90
66568;DHT22;53422;49.296;6.900;2023-11-19T09:25:07;11.00;99.90
66568;DHT22;53422;49.296;6.900;2023-11-19T09:27:32;11.10;99.90
66568;DHT22;53422;49.296;6.900;2023-11-19T09:29:58;11.10;99.90
66568;DHT22;53422;49.296;6.900;2023-11-19T09:32:24;11.20;99.90
66568;DHT22;53422;49.296;6.900;2023-11-19T09:34:51;11.00;99.90
66568;DHT22;53422;49.296;6.900;2023-11-19T09:37:16;11.10;99.90
66568;DHT22;53422;49.296;6.900;2023-11-19T09:39:42;11.10;99.90
66568;DHT22;53422;49.296;6.900;2023-11-19T09:42:11;11.20;99.90
66568;DHT22;53422;49.296;6.900;2023-11-19T09:44:38;11.20;99.90
66568;DHT22;53422;49.296;6.900;2023-11-19T09:47:05;11.20;99.90
66568;DHT22;53422;49.296;6.900;2023-11-19T09:49:32;11.30;99.90
66568;DHT22;53422;49.296;6.900;2023-11-19T09:51:58;11.20;99.90
66568;DHT22;53422;49.296;6.900;2023-11-19T09:54:24;11.30;99.90
66568;DHT22;53422;49.296;6.900;2023-11-19T09:56:50;11.30;99.90
66568;DHT22;53422;49.296;6.900;2023-11-19T09:59:16;11.30;99.90
66568;DHT22;53422;49.296;6.900;2023-11-19T10:01:43;11.30;99.90
66568;DHT22;53422;49.296;6.900;2023-11-19T10:04:14;11.40;99.90
66568;DHT22;53422;49.296;6.900;2023-11-19T10:06:42;11.30;99.90
66568;DHT22;53422;49.296;6.900;2023-11-19T10:09:07;11.50;99.90
66568;DHT22;53422;49.296;6.900;2023-11-19T10:11:33;11.50;99.90
66568;DHT22;53422;49.296;6.900;2023-11-19T10:13:59;11.50;99.90
66568;DHT22;53422;49.296;6.900;2023-11-19T10:16:29;11.50;99.90
66568;DHT22;53422;49.296;6.900;2023-11-19T10:18:58;11.50;99.90
66568;DHT22;53422;49.296;6.900;2023-11-19T10:21:24;11.60;99.90
66568;DHT22;53422;49.296;6.900;2023-11-19T10:23:51;11.70;99.90
66568;DHT22;53422;49.296;6.900;2023-11-19T10:26:18;11.60;99.90
66568;DHT22;53422;49.296;6.900;2023-11-19T10:28:46;11.60;99.90
66568;DHT22;53422;49.296;6.900;2023-11-19T10:31:16;11.60;99.90
66568;DHT22;53422;49.296;6.900;2023-11-19T10:33:43;11.70;99.90
66568;DHT22;53422;49.296;6.900;2023-11-19T10:36:11;11.70;99.90
66568;DHT22;53422;49.296;6.900;2023-11-19T10:38:38;11.60;99.90
66568;DHT22;53422;49.296;6.900;2023-11-19T10:41:04;11.70;99.90
66568;DHT22;53422;49.296;6.900;2023-11-19T10:43:31;11.70;99.90
66568;DHT22;53422;49.296;6.900;2023-11-19T10:46:10;11.80;99.90
66568;DHT22;53422;49.296;6.900;2023-11-19T10:48:37;11.80;99.90
66568;DHT22;53422;49.296;6.900;2023-11-19T10:51:05;11.90;99.90
66568;DHT22;53422;49.296;6.900;2023-11-19T10:53:38;11.80;99.90
66568;DHT22;53422;49.296;6.900;2023-11-19T10:56:06;11.80;99.90
66568;DHT22;53422;49.296;6.900;2023-11-19T10:58:36;11.70;99.90
66568;DHT22;53422;49.296;6.900;2023-11-19T11:01:11;11.70;99.90
66568;DHT22;53422;49.296;6.900;2023-11-19T11:03:42;11.90;99.90
66568;DHT22;53422;49.296;6.900;2023-11-19T11:06:12;11.90;99.90
66568;DHT22;53422;49.296;6.900;2023-11-19T11:08:39;11.90;99.90
66568;DHT22;53422;49.296;6.900;2023-11-19T11:11:05;11.80;99.90
66568;DHT22;53422;49.296;6.900;2023-11-19T11:13:34;11.90;99.90
66568;DHT22;53422;49.296;6.900;2023-11-19T11:16:02;11.90;99.90
66568;DHT22;53422;49.296;6.900;2023-11-19T11:18:29;11.90;99.90
66568;DHT22;53422;49.296;6.900;2023-11-19T11:21:11;11.80;99.90
66568;DHT22;53422;49.296;6.900;2023-11-19T11:26:52;11.80;99.90
66568;DHT22;53422;49.296;6.900;2023-11-19T11:39:39;11.90;99.90
66568;DHT22;53422;49.296;6.900;2023-11-19T11:42:31;11.90;99.90
66568;DHT22;53422;49.296;6.900;2023-11-19T11:45:01;11.90;99.90
66568;DHT22;53422;49.296;6.900;2023-11-19T11:50:09;11.80;99.90
66568;DHT22;53422;49.296;6.900;2023-11-19T11:57:57;11.90;99.90
66568;DHT22;53422;49.296;6.900;2023-11-19T12:03:04;11.80;99.90
66568;DHT22;53422;49.296;6.900;2023-11-19T12:05:29;11.90;99.90
66568;DHT22;53422;49.296;6.900;2023-11-19T12:07:56;11.90;99.90
66568;DHT22;53422;49.296;6.900;2023-11-19T12:10:25;11.90;99.90
66568;DHT22;53422;49.296;6.900;2023-11-19T12:12:53;11.90;99.90
66568;DHT22;53422;49.296;6.900;2023-11-19T12:15:19;12.10;99.90
66568;DHT22;53422;49.296;6.900;2023-11-19T12:17:50;12.10;99.90
66568;DHT22;53422;49.296;6.900;2023-11-19T12:20:21;12.10;99.90
66568;DHT22;53422;49.296;6.900;2023-11-19T12:22:47;12.10;99.90
66568;DHT22;53422;49.296;6.900;2023-11-19T12:25:15;12.00;99.90
66568;DHT22;53422;49.296;6.900;2023-11-19T12:27:49;12.00;99.90
66568;DHT22;53422;49.296;6.900;2023-11-19T12:30:23;12.00;99.90
66568;DHT22;53422;49.296;6.900;2023-11-19T12:32:49;12.00;99.90
66568;DHT22;53422;49.296;6.900;2023-11-19T12:35:15;12.00;99.90
66568;DHT22;53422;49.296;6.900;2023-11-19T12:37:48;12.00;99.90
66568;DHT22;53422;49.296;6.900;2023-11-19T12:40:18;11.90;99.90
66568;DHT22;53422;49.296;6.900;2023-11-19T12:42:48;11.90;99.90
66568;DHT22;53422;49.296;6.900;2023-11-19T12:45:14;11.80;99.90
66568;DHT22;53422;49.296;6.900;2023-11-19T12:47:40;11.80;99.90
66568;DHT22;53422;49.296;6.900;2023-11-19T12:50:07;11.90;99.90
66568;DHT22;53422;49.296;6.900;2023-11-19T12:52:35;11.80;99.90
66568;DHT22;53422;49.296;6.900;2023-11-19T12:55:02;11.90;99.90
66568;DHT22;53422;49.296;6.900;2023-11-19T13:00:04;12.00;99.90
66568;DHT22;53422;49.296;6.900;2023-11-19T13:02:47;11.90;99.90
66568;DHT22;53422;49.296;6.900;2023-11-19T13:05:30;11.90;99.90
66568;DHT22;53422;49.296;6.900;2023-11-19T13:08:06;12.00;99.90
66568;DHT22;53422;49.296;6.900;2023-11-19T13:10:34;12.00;99.90
66568;DHT22;53422;49.296;6.900;2023-11-19T13:13:15;11.90;99.90
66568;DHT22;53422;49.296;6.900;2023-11-19T13:15:41;11.90;99.90
66568;DHT22;53422;49.296;6.900;2023-11-19T13:18:06;11.80;99.90
66568;DHT22;53422;49.296;6.900;2023-11-19T13:20:32;11.90;99.90
66568;DHT22;53422;49.296;6.900;2023-11-19T13:23:00;11.90;99.90
66568;DHT22;53422;49.296;6.900;2023-11-19T13:25:26;11.90;99.90
66568;DHT22;53422;49.296;6.900;2023-11-19T13:27:53;11.90;99.90
66568;DHT22;53422;49.296;6.900;2023-11-19T13:30:19;11.80;99.90
66568;DHT22;53422;49.296;6.900;2023-11-19T13:32:45;11.80;99.90
66568;DHT22;53422;49.296;6.900;2023-11-19T13:35:13;11.80;99.90
66568;DHT22;53422;49.296;6.900;2023-11-19T13:37:39;11.80;99.90
66568;DHT22;53422;49.296;6.900;2023-11-19T13:40:08;11.70;99.90
66568;DHT22;53422;49.296;6.900;2023-11-19T13:42:43;11.80;99.90
66568;DHT22;53422;49.296;6.900;2023-11-19T13:45:13;11.80;99.90
66568;DHT22;53422;49.296;6.900;2023-11-19T13:47:39;11.80;99.90
66568;DHT22;53422;49.296;6.900;2023-11-19T13:50:16;11.80;99.90
66568;DHT22;53422;49.296;6.900;2023-11-19T13:52:44;11.80;99.90
66568;DHT22;53422;49.296;6.900;2023-11-19T13:55:13;11.80;99.90
66568;DHT22;53422;49.296;6.900;2023-11-19T13:57:40;11.90;99.90
66568;DHT22;53422;49.296;6.900;2023-11-19T14:00:07;11.80;99.90
66568;DHT22;53422;49.296;6.900;2023-11-19T14:02:42;11.80;99.90
66568;DHT22;53422;49.296;6.900;2023-11-19T14:05:08;11.90;99.90
66568;DHT22;53422;49.296;6.900;2023-11-19T14:07:34;11.80;99.90
66568;DHT22;53422;49.296;6.900;2023-11-19T14:10:00;11.70;99.90
66568;DHT22;53422;49.296;6.900;2023-11-19T14:12:26;11.70;99.90
66568;DHT22;53422;49.296;6.900;2023-11-19T14:14:51;11.80;99.90
66568;DHT22;53422;49.296;6.900;2023-11-19T14:17:17;11.90;99.90
66568;DHT22;53422;49.296;6.900;2023-11-19T14:19:44;11.90;99.90
66568;DHT22;53422;49.296;6.900;2023-11-19T14:22:10;11.80;99.90
66568;DHT22;53422;49.296;6.900;2023-11-19T14:24:37;11.80;99.90
66568;DHT22;53422;49.296;6.900;2023-11-19T14:27:02;11.80;99.90
66568;DHT22;53422;49.296;6.900;2023-11-19T14:29:28;11.80;99.90
66568;DHT22;53422;49.296;6.900;2023-11-19T14:31:55;11.70;99.90
66568;DHT22;53422;49.296;6.900;2023-11-19T14:34:21;11.70;99.90
66568;DHT22;53422;49.296;6.900;2023-11-19T14:36:47;11.70;99.90
66568;DHT22;53422;49.296;6.900;2023-11-19T14:39:13;11.70;99.90
66568;DHT22;53422;49.296;6.900;2023-11-19T14:41:39;11.60;99.90
66568;DHT22;53422;49.296;6.900;2023-11-19T14:44:05;11.60;99.90
66568;DHT22;53422;49.296;6.900;2023-11-19T14:46:31;11.60;99.90
66568;DHT22;53422;49.296;6.900;2023-11-19T14:48:57;11.60;99.90
66568;DHT22;53422;49.296;6.900;2023-11-19T14:51:23;11.50;99.90
66568;DHT22;53422;49.296;6.900;2023-11-19T14:53:48;11.60;99.90
66568;DHT22;53422;49.296;6.900;2023-11-19T14:56:14;11.50;99.90
66568;DHT22;53422;49.296;6.900;2023-11-19T14:58:40;11.50;99.90
66568;DHT22;53422;49.296;6.900;2023-11-19T15:01:06;11.50;99.90
66568;DHT22;53422;49.296;6.900;2023-11-19T15:03:35;11.50;99.90
66568;DHT22;53422;49.296;6.900;2023-11-19T15:06:01;11.50;99.90
66568;DHT22;53422;49.296;6.900;2023-11-19T15:08:26;11.50;99.90
66568;DHT22;53422;49.296;6.900;2023-11-19T15:10:52;11.40;99.90
66568;DHT22;53422;49.296;6.900;2023-11-19T15:13:18;11.40;99.90
66568;DHT22;53422;49.296;6.900;2023-11-19T15:15:44;11.60;99.90
66568;DHT22;53422;49.296;6.900;2023-11-19T15:18:09;11.70;99.90
66568;DHT22;53422;49.296;6.900;2023-11-19T15:20:35;11.70;99.90
66568;DHT22;53422;49.296;6.900;2023-11-19T15:23:01;11.60;99.90
66568;DHT22;53422;49.296;6.900;2023-11-19T15:25:27;11.60;99.90
66568;DHT22;53422;49.296;6.900;2023-11-19T15:27:53;11.50;99.90
66568;DHT22;53422;49.296;6.900;2023-11-19T15:30:19;11.40;99.90
66568;DHT22;53422;49.296;6.900;2023-11-19T15:32:44;11.50;99.90
66568;DHT22;53422;49.296;6.900;2023-11-19T15:35:10;11.50;99.90
66568;DHT22;53422;49.296;6.900;2023-11-19T15:37:36;11.50;99.90
66568;DHT22;53422;49.296;6.900;2023-11-19T15:40:03;11.40;99.90
66568;DHT22;53422;49.296;6.900;2023-11-19T15:42:31;11.40;99.90
66568;DHT22;53422;49.296;6.900;2023-11-19T15:44:57;11.30;99.90
66568;DHT22;53422;49.296;6.900;2023-11-19T15:47:22;11.30;99.90
66568;DHT22;53422;49.296;6.900;2023-11-19T15:49:49;11.30;99.90
66568;DHT22;53422;49.296;6.900;2023-11-19T15:52:15;11.20;99.90
66568;DHT22;53422;49.296;6.900;2023-11-19T15:54:41;11.10;99.90
66568;DHT22;53422;49.296;6.900;2023-11-19T15:57:07;11.20;99.90
66568;DHT22;53422;49.296;6.900;2023-11-19T15:59:32;11.20;99.90
66568;DHT22;53422;49.296;6.900;2023-11-19T16:01:58;11.20;99.90
66568;DHT22;53422;49.296;6.900;2023-11-19T16:04:24;11.10;99.90